sensor_id;sensor_type;location;lat;lon;timestamp;temperature;humidity
13744;DHT22;6943;52.368;9.966;2023-01-29T00:01:49;1.80;1.00
13744;DHT22;6943;52.368;9.966;2023-01-29T00:04:15;1.80;1.00
13744;DHT22;6943;52.368;9.966;2023-01-29T00:06:41;1.80;1.00
13744;DHT22;6943;52.368;9.966;2023-01-29T00:09:06;1.70;1.00
13744;DHT22;6943;52.368;9.966;2023-01-29T00:11:32;1.70;1.00
13744;DHT22;6943;52.368;9.966;2023-01-29T00:13:57;1.70;1.00
13744;DHT22;6943;52.368;9.966;2023-01-29T00:16:23;1.70;1.00
13744;DHT22;6943;52.368;9.966;2023-01-29T00:18:49;1.70;1.00
13744;DHT22;6943;52.368;9.966;2023-01-29T00:21:17;1.70;1.00
13744;DHT22;6943;52.368;9.966;2023-01-29T00:23:43;1.90;1.00
13744;DHT22;6943;52.368;9.966;2023-01-29T00:26:10;1.90;1.00
13744;DHT22;6943;52.368;9.966;2023-01-29T00:28:35;2.00;1.00
13744;DHT22;6943;52.368;9.966;2023-01-29T00:31:12;1.90;1.00
13744;DHT22;6943;52.368;9.966;2023-01-29T00:33:38;2.00;1.00
13744;DHT22;6943;52.368;9.966;2023-01-29T00:36:09;2.00;1.00
13744;DHT22;6943;52.368;9.966;2023-01-29T00:38:36;2.00;1.00
13744;DHT22;6943;52.368;9.966;2023-01-29T00:41:13;2.00;1.00
13744;DHT22;6943;52.368;9.966;2023-01-29T00:43:59;2.00;1.00
13744;DHT22;6943;52.368;9.966;2023-01-29T00:46:43;1.90;1.00
13744;DHT22;6943;52.368;9.966;2023-01-29T00:49:09;1.90;1.00
13744;DHT22;6943;52.368;9.966;2023-01-29T00:51:35;1.90;1.00
13744;DHT22;6943;52.368;9.966;2023-01-29T00:54:01;1.90;1.00
13744;DHT22;6943;52.368;9.966;2023-01-29T00:56:31;1.80;1.00
13744;DHT22;6943;52.368;9.966;2023-01-29T00:58:57;1.90;1.00
13744;DHT22;6943;52.368;9.966;2023-01-29T01:01:23;2.00;1.00
13744;DHT22;6943;52.368;9.966;2023-01-29T01:04:08;2.00;1.00
13744;DHT22;6943;52.368;9.966;2023-01-29T01:06:41;1.90;1.00
13744;DHT22;6943;52.368;9.966;2023-01-29T01:09:08;2.00;1.00
13744;DHT22;6943;52.368;9.966;2023-01-29T01:11:52;2.00;1.00
13744;DHT22;6943;52.368;9.966;2023-01-29T01:14:18;2.00;1.00
13744;DHT22;6943;52.368;9.966;2023-01-29T01:16:45;2.00;1.00
13744;DHT22;6943;52.368;9.966;2023-01-29T01:19:11;1.90;1.00
13744;DHT22;6943;52.368;9.966;2023-01-29T01:21:36;2.00;1.00
13744;DHT22;6943;52.368;9.966;2023-01-29T01:24:02;2.00;1.00
13744;DHT22;6943;52.368;9.966;2023-01-29T01:26:30;2.00;1.00
13744;DHT22;6943;52.368;9.966;2023-01-29T01:28:56;1.90;1.00
13744;DHT22;6943;52.368;9.966;2023-01-29T01:31:21;1.90;1.00
13744;DHT22;6943;52.368;9.966;2023-01-29T01:33:47;1.80;1.00
13744;DHT22;6943;52.368;9.966;2023-01-29T01:36:12;1.70;1.00
13744;DHT22;6943;52.368;9.966;2023-01-29T01:38:38;1.70;1.00
13744;DHT22;6943;52.368;9.966;2023-01-29T01:41:14;1.50;1.00
13744;DHT22;6943;52.368;9.966;2023-01-29T01:43:52;1.30;99.90
13744;DHT22;6943;52.368;9.966;2023-01-29T01:46:18;1.20;99.90
13744;DHT22;6943;52.368;9.966;2023-01-29T01:48:46;1.20;99.90
13744;DHT22;6943;52.368;9.966;2023-01-29T01:51:14;1.20;99.90
13744;DHT22;6943;52.368;9.966;2023-01-29T01:53:47;1.20;1.00
13744;DHT22;6943;52.368;9.966;2023-01-29T01:56:24;1.20;99.90
13744;DHT22;6943;52.368;9.966;2023-01-29T01:58:54;1.20;99.90
13744;DHT22;6943;52.368;9.966;2023-01-29T02:01:23;1.10;99.90
13744;DHT22;6943;52.368;9.966;2023-01-29T02:04:13;1.10;1.00
13744;DHT22;6943;52.368;9.966;2023-01-29T02:07:01;1.00;1.00
13744;DHT22;6943;52.368;9.966;2023-01-29T02:10:09;1.00;1.00
13744;DHT22;6943;52.368;9.966;2023-01-29T02:12:37;0.90;1.00
13744;DHT22;6943;52.368;9.966;2023-01-29T02:15:03;0.90;1.00
13744;DHT22;6943;52.368;9.966;2023-01-29T02:17:30;1.00;1.00
13744;DHT22;6943;52.368;9.966;2023-01-29T02:28:14;1.00;1.00
13744;DHT22;6943;52.368;9.966;2023-01-29T02:31:05;1.10;1.00
13744;DHT22;6943;52.368;9.966;2023-01-29T02:42:23;1.60;1.00
13744;DHT22;6943;52.368;9.966;2023-01-29T02:45:16;1.80;1.00
13744;DHT22;6943;52.368;9.966;2023-01-29T02:47:58;1.80;1.00
13744;DHT22;6943;52.368;9.966;2023-01-29T02:50:50;1.80;1.00
13744;DHT22;6943;52.368;9.966;2023-01-29T02:53:25;1.80;1.00
13744;DHT22;6943;52.368;9.966;2023-01-29T02:55:59;1.80;1.00
13744;DHT22;6943;52.368;9.966;2023-01-29T02:58:41;1.80;1.00
13744;DHT22;6943;52.368;9.966;2023-01-29T03:01:16;1.80;1.00
13744;DHT22;6943;52.368;9.966;2023-01-29T03:03:47;1.80;1.00
13744;DHT22;6943;52.368;9.966;2023-01-29T03:06:22;1.90;1.00
13744;DHT22;6943;52.368;9.966;2023-01-29T03:08:59;1.90;1.00
13744;DHT22;6943;52.368;9.966;2023-01-29T03:11:30;1.90;1.00
13744;DHT22;6943;52.368;9.966;2023-01-29T03:14:02;2.00;1.00
13744;DHT22;6943;52.368;9.966;2023-01-29T03:16:48;2.00;1.00
13744;DHT22;6943;52.368;9.966;2023-01-29T03:19:37;2.00;1.00
13744;DHT22;6943;52.368;9.966;2023-01-29T03:22:04;2.00;1.00
13744;DHT22;6943;52.368;9.966;2023-01-29T03:24:38;2.00;1.00
13744;DHT22;6943;52.368;9.966;2023-01-29T03:27:27;2.00;1.00
13744;DHT22;6943;52.368;9.966;2023-01-29T03:30:15;2.00;1.00
13744;DHT22;6943;52.368;9.966;2023-01-29T03:33:04;2.00;1.00
13744;DHT22;6943;52.368;9.966;2023-01-29T03:35:35;2.00;1.00
13744;DHT22;6943;52.368;9.966;2023-01-29T03:38:03;2.10;1.00
13744;DHT22;6943;52.368;9.966;2023-01-29T03:40:50;2.10;1.00
13744;DHT22;6943;52.368;9.966;2023-01-29T03:43:30;2.10;1.00
13744;DHT22;6943;52.368;9.966;2023-01-29T03:46:15;2.10;1.00
13744;DHT22;6943;52.368;9.966;2023-01-29T03:49:00;2.10;1.00
13744;DHT22;6943;52.368;9.966;2023-01-29T03:51:36;2.10;1.00
13744;DHT22;6943;52.368;9.966;2023-01-29T03:54:22;2.10;1.00
13744;DHT22;6943;52.368;9.966;2023-01-29T03:57:04;2.10;1.00
13744;DHT22;6943;52.368;9.966;2023-01-29T03:59:40;2.00;1.00
13744;DHT22;6943;52.368;9.966;2023-01-29T04:02:14;2.00;1.00
13744;DHT22;6943;52.368;9.966;2023-01-29T04:04:43;2.00;1.00
13744;DHT22;6943;52.368;9.966;2023-01-29T04:07:18;2.00;1.00
13744;DHT22;6943;52.368;9.966;2023-01-29T04:09:59;2.00;1.00
13744;DHT22;6943;52.368;9.966;2023-01-29T04:12:29;1.90;1.00
13744;DHT22;6943;52.368;9.966;2023-01-29T04:14:58;2.00;1.00
13744;DHT22;6943;52.368;9.966;2023-01-29T04:17:36;2.00;1.00
13744;DHT22;6943;52.368;9.966;2023-01-29T04:20:03;2.00;1.00
13744;DHT22;6943;52.368;9.966;2023-01-29T04:22:34;1.90;1.00
13744;DHT22;6943;52.368;9.966;2023-01-29T04:25:45;2.00;1.00
13744;DHT22;6943;52.368;9.966;2023-01-29T04:28:18;2.00;1.00
13744;DHT22;6943;52.368;9.966;2023-01-29T04:30:53;2.10;1.00
13744;DHT22;6943;52.368;9.966;2023-01-29T04:33:31;2.10;1.00
13744;DHT22;6943;52.368;9.966;2023-01-29T04:39:17;2.10;1.00
13744;DHT22;6943;52.368;9.966;2023-01-29T04:41:58;2.20;1.00
13744;DHT22;6943;52.368;9.966;2023-01-29T04:44:40;2.20;1.00
13744;DHT22;6943;52.368;9.966;2023-01-29T04:52:52;2.40;1.00
13744;DHT22;6943;52.368;9.966;2023-01-29T04:55:31;2.40;1.00
13744;DHT22;6943;52.368;9.966;2023-01-29T05:00:42;2.20;1.00
13744;DHT22;6943;52.368;9.966;2023-01-29T05:03:09;2.20;1.00
13744;DHT22;6943;52.368;9.966;2023-01-29T05:05:38;2.10;1.00
13744;DHT22;6943;52.368;9.966;2023-01-29T05:08:04;2.10;1.00
13744;DHT22;6943;52.368;9.966;2023-01-29T05:10:30;2.10;1.00
13744;DHT22;6943;52.368;9.966;2023-01-29T05:13:02;2.10;1.00
13744;DHT22;6943;52.368;9.966;2023-01-29T05:15:39;2.20;1.00
13744;DHT22;6943;52.368;9.966;2023-01-29T05:18:06;2.20;1.00
13744;DHT22;6943;52.368;9.966;2023-01-29T05:20:35;2.20;1.00
13744;DHT22;6943;52.368;9.966;2023-01-29T05:23:02;2.10;1.00
13744;DHT22;6943;52.368;9.966;2023-01-29T05:25:31;2.20;1.00
13744;DHT22;6943;52.368;9.966;2023-01-29T05:27:57;2.20;1.00
13744;DHT22;6943;52.368;9.966;2023-01-29T05:30:37;2.20;1.00
13744;DHT22;6943;52.368;9.966;2023-01-29T05:33:04;2.30;1.00
13744;DHT22;6943;52.368;9.966;2023-01-29T05:35:30;2.30;1.00
13744;DHT22;6943;52.368;9.966;2023-01-29T05:37:56;2.20;1.00
13744;DHT22;6943;52.368;9.966;2023-01-29T05:40:23;2.20;1.00
13744;DHT22;6943;52.368;9.966;2023-01-29T05:42:49;2.10;1.00
13744;DHT22;6943;52.368;9.966;2023-01-29T05:45:15;2.10;1.00
13744;DHT22;6943;52.368;9.966;2023-01-29T05:47:41;2.20;1.00
13744;DHT22;6943;52.368;9.966;2023-01-29T05:50:07;2.20;1.00
13744;DHT22;6943;52.368;9.966;2023-01-29T05:52:32;2.20;1.00
13744;DHT22;6943;52.368;9.966;2023-01-29T05:54:58;2.20;1.00
13744;DHT22;6943;52.368;9.966;2023-01-29T05:57:23;2.20;1.00
13744;DHT22;6943;52.368;9.966;2023-01-29T05:59:49;2.30;99.90
13744;DHT22;6943;52.368;9.966;2023-01-29T06:02:14;2.30;99.90
13744;DHT22;6943;52.368;9.966;2023-01-29T06:04:39;2.30;99.90
13744;DHT22;6943;52.368;9.966;2023-01-29T06:07:05;2.30;99.90
13744;DHT22;6943;52.368;9.966;2023-01-29T06:09:30;2.30;99.90
13744;DHT22;6943;52.368;9.966;2023-01-29T06:11:56;2.30;99.90
13744;DHT22;6943;52.368;9.966;2023-01-29T06:14:21;2.30;99.90
13744;DHT22;6943;52.368;9.966;2023-01-29T06:16:47;2.40;99.90
13744;DHT22;6943;52.368;9.966;2023-01-29T06:19:12;2.40;99.90
13744;DHT22;6943;52.368;9.966;2023-01-29T06:21:38;2.40;99.90
13744;DHT22;6943;52.368;9.966;2023-01-29T06:24:03;2.40;99.90
13744;DHT22;6943;52.368;9.966;2023-01-29T06:26:29;2.40;99.90
13744;DHT22;6943;52.368;9.966;2023-01-29T06:28:55;2.40;99.90
13744;DHT22;6943;52.368;9.966;2023-01-29T06:31:20;2.40;99.90
13744;DHT22;6943;52.368;9.966;2023-01-29T06:33:46;2.40;99.90
13744;DHT22;6943;52.368;9.966;2023-01-29T06:36:11;2.50;99.90
13744;DHT22;6943;52.368;9.966;2023-01-29T06:38:37;2.50;99.90
13744;DHT22;6943;52.368;9.966;2023-01-29T06:41:10;2.50;99.90
13744;DHT22;6943;52.368;9.966;2023-01-29T06:43:36;2.50;99.90
13744;DHT22;6943;52.368;9.966;2023-01-29T06:46:02;2.50;99.90
13744;DHT22;6943;52.368;9.966;2023-01-29T06:48:28;2.50;99.90
13744;DHT22;6943;52.368;9.966;2023-01-29T06:50:53;2.50;99.90
13744;DHT22;6943;52.368;9.966;2023-01-29T06:53:20;2.50;99.90
13744;DHT22;6943;52.368;9.966;2023-01-29T06:55:51;2.40;99.90
13744;DHT22;6943;52.368;9.966;2023-01-29T06:58:17;2.40;99.90
13744;DHT22;6943;52.368;9.966;2023-01-29T07:00:43;2.30;99.90
13744;DHT22;6943;52.368;9.966;2023-01-29T07:03:09;2.30;99.90
13744;DHT22;6943;52.368;9.966;2023-01-29T07:05:35;2.30;99.90
13744;DHT22;6943;52.368;9.966;2023-01-29T07:08:01;2.30;99.90
13744;DHT22;6943;52.368;9.966;2023-01-29T07:10:26;2.30;99.90
13744;DHT22;6943;52.368;9.966;2023-01-29T07:12:52;2.30;99.90
13744;DHT22;6943;52.368;9.966;2023-01-29T07:15:18;2.30;99.90
13744;DHT22;6943;52.368;9.966;2023-01-29T07:18:01;2.30;99.90
13744;DHT22;6943;52.368;9.966;2023-01-29T07:20:28;2.30;99.90
13744;DHT22;6943;52.368;9.966;2023-01-29T07:22:55;2.30;99.90
13744;DHT22;6943;52.368;9.966;2023-01-29T07:25:21;2.40;99.90
13744;DHT22;6943;52.368;9.966;2023-01-29T07:27:47;2.40;99.90
13744;DHT22;6943;52.368;9.966;2023-01-29T07:30:13;2.40;99.90
13744;DHT22;6943;52.368;9.966;2023-01-29T07:32:39;2.40;99.90
13744;DHT22;6943;52.368;9.966;2023-01-29T07:35:04;2.40;99.90
13744;DHT22;6943;52.368;9.966;2023-01-29T07:37:30;2.50;99.90
13744;DHT22;6943;52.368;9.966;2023-01-29T07:39:56;2.50;99.90
13744;DHT22;6943;52.368;9.966;2023-01-29T07:42:21;2.50;99.90
13744;DHT22;6943;52.368;9.966;2023-01-29T07:44:46;2.50;99.90
13744;DHT22;6943;52.368;9.966;2023-01-29T07:47:12;2.50;99.90
13744;DHT22;6943;52.368;9.966;2023-01-29T07:49:37;2.60;99.90
13744;DHT22;6943;52.368;9.966;2023-01-29T07:52:03;2.50;99.90
13744;DHT22;6943;52.368;9.966;2023-01-29T07:54:29;2.50;99.90
13744;DHT22;6943;52.368;9.966;2023-01-29T07:56:55;2.50;99.90
13744;DHT22;6943;52.368;9.966;2023-01-29T07:59:20;2.50;99.90
13744;DHT22;6943;52.368;9.966;2023-01-29T08:01:46;2.50;1.00
13744;DHT22;6943;52.368;9.966;2023-01-29T08:04:11;2.50;1.00
13744;DHT22;6943;52.368;9.966;2023-01-29T08:06:37;2.50;1.00
13744;DHT22;6943;52.368;9.966;2023-01-29T08:09:02;2.50;1.00
13744;DHT22;6943;52.368;9.966;2023-01-29T08:11:28;2.40;1.00
13744;DHT22;6943;52.368;9.966;2023-01-29T08:13:54;2.40;1.00
13744;DHT22;6943;52.368;9.966;2023-01-29T08:16:20;2.40;1.00
13744;DHT22;6943;52.368;9.966;2023-01-29T08:18:46;2.40;1.00
13744;DHT22;6943;52.368;9.966;2023-01-29T08:21:12;2.40;1.00
13744;DHT22;6943;52.368;9.966;2023-01-29T08:23:37;2.30;1.00
13744;DHT22;6943;52.368;9.966;2023-01-29T08:26:03;2.30;1.00
13744;DHT22;6943;52.368;9.966;2023-01-29T08:28:28;2.30;64.50
13744;DHT22;6943;52.368;9.966;2023-01-29T08:30:54;2.40;99.90
13744;DHT22;6943;52.368;9.966;2023-01-29T08:33:20;2.30;1.00
13744;DHT22;6943;52.368;9.966;2023-01-29T08:35:49;2.20;99.90
13744;DHT22;6943;52.368;9.966;2023-01-29T08:38:15;2.20;97.60
13744;DHT22;6943;52.368;9.966;2023-01-29T08:40:41;2.20;16.80
13744;DHT22;6943;52.368;9.966;2023-01-29T08:43:09;2.20;99.90
13744;DHT22;6943;52.368;9.966;2023-01-29T08:45:40;2.30;99.90
13744;DHT22;6943;52.368;9.966;2023-01-29T08:48:06;2.40;94.20
13744;DHT22;6943;52.368;9.966;2023-01-29T08:50:32;2.50;1.00
13744;DHT22;6943;52.368;9.966;2023-01-29T08:53:00;2.50;1.00
13744;DHT22;6943;52.368;9.966;2023-01-29T08:55:26;2.50;1.00
13744;DHT22;6943;52.368;9.966;2023-01-29T08:57:52;2.60;1.00
13744;DHT22;6943;52.368;9.966;2023-01-29T09:00:18;2.60;1.00
13744;DHT22;6943;52.368;9.966;2023-01-29T09:02:44;2.60;1.00
13744;DHT22;6943;52.368;9.966;2023-01-29T09:05:09;2.60;1.00
13744;DHT22;6943;52.368;9.966;2023-01-29T09:07:35;2.60;1.00
13744;DHT22;6943;52.368;9.966;2023-01-29T09:10:00;2.60;1.00
13744;DHT22;6943;52.368;9.966;2023-01-29T09:12:26;2.50;1.00
13744;DHT22;6943;52.368;9.966;2023-01-29T09:14:51;2.60;1.00
13744;DHT22;6943;52.368;9.966;2023-01-29T09:17:17;2.70;1.00
13744;DHT22;6943;52.368;9.966;2023-01-29T09:19:42;2.70;1.00
13744;DHT22;6943;52.368;9.966;2023-01-29T09:22:08;2.80;1.00
13744;DHT22;6943;52.368;9.966;2023-01-29T09:24:33;2.80;1.00
13744;DHT22;6943;52.368;9.966;2023-01-29T09:26:59;2.80;1.00
13744;DHT22;6943;52.368;9.966;2023-01-29T09:29:25;2.90;1.00
13744;DHT22;6943;52.368;9.966;2023-01-29T09:31:50;3.10;1.00
13744;DHT22;6943;52.368;9.966;2023-01-29T09:34:16;3.10;1.00
13744;DHT22;6943;52.368;9.966;2023-01-29T09:36:41;3.10;1.00
13744;DHT22;6943;52.368;9.966;2023-01-29T09:39:07;3.10;1.00
13744;DHT22;6943;52.368;9.966;2023-01-29T09:41:45;3.20;1.00
13744;DHT22;6943;52.368;9.966;2023-01-29T09:47:14;3.20;1.00
13744;DHT22;6943;52.368;9.966;2023-01-29T09:49:46;3.30;1.00
13744;DHT22;6943;52.368;9.966;2023-01-29T09:52:19;3.30;1.00
13744;DHT22;6943;52.368;9.966;2023-01-29T09:55:11;3.40;1.00
13744;DHT22;6943;52.368;9.966;2023-01-29T09:57:55;3.60;99.90
13744;DHT22;6943;52.368;9.966;2023-01-29T10:00:24;3.60;99.90
13744;DHT22;6943;52.368;9.966;2023-01-29T10:03:06;3.60;99.90
13744;DHT22;6943;52.368;9.966;2023-01-29T10:08:45;3.60;99.90
13744;DHT22;6943;52.368;9.966;2023-01-29T10:11:37;3.70;99.90
13744;DHT22;6943;52.368;9.966;2023-01-29T10:14:10;3.70;99.90
13744;DHT22;6943;52.368;9.966;2023-01-29T10:16:56;3.70;99.90
13744;DHT22;6943;52.368;9.966;2023-01-29T10:19:32;3.80;99.90
13744;DHT22;6943;52.368;9.966;2023-01-29T10:25:16;3.70;99.90
13744;DHT22;6943;52.368;9.966;2023-01-29T10:27:51;3.80;99.90
13744;DHT22;6943;52.368;9.966;2023-01-29T10:32:58;3.80;99.90
13744;DHT22;6943;52.368;9.966;2023-01-29T10:38:20;3.90;99.90
13744;DHT22;6943;52.368;9.966;2023-01-29T10:44:04;3.80;99.90
13744;DHT22;6943;52.368;9.966;2023-01-29T10:58:02;3.80;99.90
13744;DHT22;6943;52.368;9.966;2023-01-29T11:00:37;3.80;99.90
13744;DHT22;6943;52.368;9.966;2023-01-29T11:03:26;3.90;99.90
13744;DHT22;6943;52.368;9.966;2023-01-29T11:06:20;3.90;99.90
13744;DHT22;6943;52.368;9.966;2023-01-29T11:11:46;3.80;99.90
13744;DHT22;6943;52.368;9.966;2023-01-29T11:14:20;3.90;99.90
13744;DHT22;6943;52.368;9.966;2023-01-29T11:16:47;4.00;99.90
13744;DHT22;6943;52.368;9.966;2023-01-29T11:19:13;4.00;21.80
13744;DHT22;6943;52.368;9.966;2023-01-29T11:22:00;4.00;1.00
13744;DHT22;6943;52.368;9.966;2023-01-29T11:24:26;4.10;1.00
13744;DHT22;6943;52.368;9.966;2023-01-29T11:26:54;4.20;1.00
13744;DHT22;6943;52.368;9.966;2023-01-29T11:29:40;4.10;1.00
13744;DHT22;6943;52.368;9.966;2023-01-29T11:32:23;4.10;1.00
13744;DHT22;6943;52.368;9.966;2023-01-29T11:35:00;4.20;1.00
13744;DHT22;6943;52.368;9.966;2023-01-29T11:42:30;4.00;1.00
13744;DHT22;6943;52.368;9.966;2023-01-29T11:44:56;4.00;1.00
13744;DHT22;6943;52.368;9.966;2023-01-29T11:47:28;3.90;1.00
13744;DHT22;6943;52.368;9.966;2023-01-29T11:49:56;4.00;3.40
13744;DHT22;6943;52.368;9.966;2023-01-29T11:52:37;4.00;1.00
13744;DHT22;6943;52.368;9.966;2023-01-29T11:55:16;4.00;1.00
13744;DHT22;6943;52.368;9.966;2023-01-29T11:57:57;4.00;1.00
13744;DHT22;6943;52.368;9.966;2023-01-29T12:00:28;4.10;1.00
13744;DHT22;6943;52.368;9.966;2023-01-29T12:03:21;4.00;1.00
13744;DHT22;6943;52.368;9.966;2023-01-29T12:06:00;4.00;1.00
13744;DHT22;6943;52.368;9.966;2023-01-29T12:08:33;4.00;1.00
13744;DHT22;6943;52.368;9.966;2023-01-29T12:11:32;4.00;1.00
13744;DHT22;6943;52.368;9.966;2023-01-29T12:14:04;4.20;1.00
13744;DHT22;6943;52.368;9.966;2023-01-29T12:16:55;4.40;1.00
13744;DHT22;6943;52.368;9.966;2023-01-29T12:19:48;4.40;1.00
13744;DHT22;6943;52.368;9.966;2023-01-29T12:22:33;4.40;1.00
13744;DHT22;6943;52.368;9.966;2023-01-29T12:25:19;4.30;1.00
13744;DHT22;6943;52.368;9.966;2023-01-29T12:28:03;4.20;1.00
13744;DHT22;6943;52.368;9.966;2023-01-29T12:30:47;4.20;1.00
13744;DHT22;6943;52.368;9.966;2023-01-29T12:33:45;4.10;1.00
13744;DHT22;6943;52.368;9.966;2023-01-29T12:36:35;4.00;1.00
13744;DHT22;6943;52.368;9.966;2023-01-29T12:39:03;4.00;1.00
13744;DHT22;6943;52.368;9.966;2023-01-29T12:41:34;4.00;1.00
13744;DHT22;6943;52.368;9.966;2023-01-29T12:44:10;3.90;1.00
13744;DHT22;6943;52.368;9.966;2023-01-29T12:46:40;3.90;1.00
13744;DHT22;6943;52.368;9.966;2023-01-29T12:49:15;3.90;1.00
13744;DHT22;6943;52.368;9.966;2023-01-29T12:54:52;4.00;1.00
13744;DHT22;6943;52.368;9.966;2023-01-29T13:00:18;4.00;1.00
13744;DHT22;6943;52.368;9.966;2023-01-29T13:03:01;4.00;1.00
13744;DHT22;6943;52.368;9.966;2023-01-29T13:05:45;3.90;1.00
13744;DHT22;6943;52.368;9.966;2023-01-29T13:08:44;4.10;1.00
13744;DHT22;6943;52.368;9.966;2023-01-29T13:11:47;4.00;1.00
13744;DHT22;6943;52.368;9.966;2023-01-29T13:14:24;4.00;1.00
13744;DHT22;6943;52.368;9.966;2023-01-29T13:17:01;3.80;1.00
13744;DHT22;6943;52.368;9.966;2023-01-29T13:19:39;3.90;1.00
13744;DHT22;6943;52.368;9.966;2023-01-29T13:22:21;3.90;1.00
13744;DHT22;6943;52.368;9.966;2023-01-29T13:24:48;4.00;1.00
13744;DHT22;6943;52.368;9.966;2023-01-29T13:27:24;4.00;1.00
13744;DHT22;6943;52.368;9.966;2023-01-29T13:29:51;4.00;1.00
13744;DHT22;6943;52.368;9.966;2023-01-29T13:32:23;4.00;1.00
13744;DHT22;6943;52.368;9.966;2023-01-29T13:34:50;4.10;1.00
13744;DHT22;6943;52.368;9.966;2023-01-29T13:37:30;4.20;1.00
13744;DHT22;6943;52.368;9.966;2023-01-29T13:39:58;4.20;1.00
13744;DHT22;6943;52.368;9.966;2023-01-29T13:45:04;4.40;1.00
13744;DHT22;6943;52.368;9.966;2023-01-29T13:47:33;4.50;1.00
13744;DHT22;6943;52.368;9.966;2023-01-29T13:50:25;4.70;1.00
13744;DHT22;6943;52.368;9.966;2023-01-29T13:52:58;4.70;1.00
13744;DHT22;6943;52.368;9.966;2023-01-29T13:55:35;4.80;1.00
13744;DHT22;6943;52.368;9.966;2023-01-29T13:58:05;4.80;1.00
13744;DHT22;6943;52.368;9.966;2023-01-29T14:08:04;4.40;1.00
13744;DHT22;6943;52.368;9.966;2023-01-29T14:10:32;4.30;1.00
13744;DHT22;6943;52.368;9.966;2023-01-29T14:18:35;4.10;99.90
13744;DHT22;6943;52.368;9.966;2023-01-29T14:21:18;4.00;99.90
13744;DHT22;6943;52.368;9.966;2023-01-29T14:24:18;4.00;99.90
13744;DHT22;6943;52.368;9.966;2023-01-29T14:26:47;3.90;99.90
13744;DHT22;6943;52.368;9.966;2023-01-29T14:29:24;3.90;99.90
13744;DHT22;6943;52.368;9.966;2023-01-29T14:34:50;3.70;1.00
13744;DHT22;6943;52.368;9.966;2023-01-29T14:39:46;3.70;1.00
13744;DHT22;6943;52.368;9.966;2023-01-29T14:42:22;3.80;1.00
13744;DHT22;6943;52.368;9.966;2023-01-29T14:45:00;3.80;1.00
13744;DHT22;6943;52.368;9.966;2023-01-29T14:52:47;3.50;1.00
13744;DHT22;6943;52.368;9.966;2023-01-29T14:57:50;3.40;1.00
13744;DHT22;6943;52.368;9.966;2023-01-29T15:00:28;3.40;1.00
13744;DHT22;6943;52.368;9.966;2023-01-29T15:02:54;3.40;1.00
13744;DHT22;6943;52.368;9.966;2023-01-29T15:05:29;3.40;1.00
13744;DHT22;6943;52.368;9.966;2023-01-29T15:07:58;3.40;1.00
13744;DHT22;6943;52.368;9.966;2023-01-29T15:11:05;3.30;1.00
13744;DHT22;6943;52.368;9.966;2023-01-29T15:13:55;3.40;1.00
13744;DHT22;6943;52.368;9.966;2023-01-29T15:16:31;3.30;1.00
13744;DHT22;6943;52.368;9.966;2023-01-29T15:19:11;3.30;1.00
13744;DHT22;6943;52.368;9.966;2023-01-29T15:21:38;3.30;96.10
13744;DHT22;6943;52.368;9.966;2023-01-29T15:24:05;3.30;99.90
13744;DHT22;6943;52.368;9.966;2023-01-29T15:26:31;3.20;99.90
13744;DHT22;6943;52.368;9.966;2023-01-29T15:28:59;3.10;1.00
13744;DHT22;6943;52.368;9.966;2023-01-29T15:31:25;3.10;1.00
13744;DHT22;6943;52.368;9.966;2023-01-29T15:33:53;3.10;1.00
13744;DHT22;6943;52.368;9.966;2023-01-29T15:36:22;3.00;1.00
13744;DHT22;6943;52.368;9.966;2023-01-29T15:39:19;3.00;1.00
13744;DHT22;6943;52.368;9.966;2023-01-29T15:41:47;3.00;1.00
13744;DHT22;6943;52.368;9.966;2023-01-29T15:44:18;3.00;1.00
13744;DHT22;6943;52.368;9.966;2023-01-29T15:46:49;3.00;1.70
13744;DHT22;6943;52.368;9.966;2023-01-29T15:49:35;3.10;1.00
13744;DHT22;6943;52.368;9.966;2023-01-29T15:52:06;3.10;59.30
13744;DHT22;6943;52.368;9.966;2023-01-29T15:54:33;3.10;7.80
13744;DHT22;6943;52.368;9.966;2023-01-29T15:57:00;3.10;99.90
13744;DHT22;6943;52.368;9.966;2023-01-29T15:59:41;3.00;99.90
13744;DHT22;6943;52.368;9.966;2023-01-29T16:02:38;3.00;99.90
13744;DHT22;6943;52.368;9.966;2023-01-29T16:05:28;2.90;1.00
13744;DHT22;6943;52.368;9.966;2023-01-29T16:07:55;2.80;1.00
13744;DHT22;6943;52.368;9.966;2023-01-29T16:10:29;2.70;22.80
13744;DHT22;6943;52.368;9.966;2023-01-29T16:12:56;2.60;96.40
13744;DHT22;6943;52.368;9.966;2023-01-29T16:15:36;2.70;99.90
13744;DHT22;6943;52.368;9.966;2023-01-29T16:18:22;2.80;99.90
13744;DHT22;6943;52.368;9.966;2023-01-29T16:20:52;2.80;19.20
13744;DHT22;6943;52.368;9.966;2023-01-29T16:23:23;2.80;1.00
13744;DHT22;6943;52.368;9.966;2023-01-29T16:25:49;2.80;1.00
13744;DHT22;6943;52.368;9.966;2023-01-29T16:28:16;2.80;1.00
13744;DHT22;6943;52.368;9.966;2023-01-29T16:30:41;2.80;1.00
13744;DHT22;6943;52.368;9.966;2023-01-29T16:33:13;2.80;1.00
13744;DHT22;6943;52.368;9.966;2023-01-29T16:35:41;2.80;1.00
13744;DHT22;6943;52.368;9.966;2023-01-29T16:38:23;2.90;1.00
13744;DHT22;6943;52.368;9.966;2023-01-29T16:41:13;2.80;1.00
13744;DHT22;6943;52.368;9.966;2023-01-29T16:48:42;2.90;1.00
13744;DHT22;6943;52.368;9.966;2023-01-29T16:53:59;2.90;99.90
13744;DHT22;6943;52.368;9.966;2023-01-29T16:56:30;2.90;99.90
13744;DHT22;6943;52.368;9.966;2023-01-29T16:58:57;2.90;99.90
13744;DHT22;6943;52.368;9.966;2023-01-29T17:01:25;2.80;99.90
13744;DHT22;6943;52.368;9.966;2023-01-29T17:04:02;2.90;99.90
13744;DHT22;6943;52.368;9.966;2023-01-29T17:06:30;2.90;99.90
13744;DHT22;6943;52.368;9.966;2023-01-29T17:08:56;2.80;99.90
13744;DHT22;6943;52.368;9.966;2023-01-29T17:11:25;2.90;1.00
13744;DHT22;6943;52.368;9.966;2023-01-29T17:13:54;2.90;99.90
13744;DHT22;6943;52.368;9.966;2023-01-29T17:16:49;3.00;1.00
13744;DHT22;6943;52.368;9.966;2023-01-29T17:19:18;2.90;99.90
13744;DHT22;6943;52.368;9.966;2023-01-29T17:21:49;2.90;1.00
13744;DHT22;6943;52.368;9.966;2023-01-29T17:24:15;2.90;99.90
13744;DHT22;6943;52.368;9.966;2023-01-29T17:26:41;2.90;99.90
13744;DHT22;6943;52.368;9.966;2023-01-29T17:29:12;2.90;99.90
13744;DHT22;6943;52.368;9.966;2023-01-29T17:31:37;2.90;99.90
13744;DHT22;6943;52.368;9.966;2023-01-29T17:34:11;2.90;99.90
13744;DHT22;6943;52.368;9.966;2023-01-29T17:36:39;2.90;99.90
13744;DHT22;6943;52.368;9.966;2023-01-29T17:39:19;2.90;99.90
13744;DHT22;6943;52.368;9.966;2023-01-29T17:41:54;2.80;99.90
13744;DHT22;6943;52.368;9.966;2023-01-29T17:44:20;2.90;99.90
13744;DHT22;6943;52.368;9.966;2023-01-29T17:46:46;2.80;99.90
13744;DHT22;6943;52.368;9.966;2023-01-29T17:49:27;2.80;99.90
13744;DHT22;6943;52.368;9.966;2023-01-29T17:51:54;2.80;99.90
13744;DHT22;6943;52.368;9.966;2023-01-29T17:54:21;2.80;99.90
13744;DHT22;6943;52.368;9.966;2023-01-29T17:56:47;2.80;99.90
13744;DHT22;6943;52.368;9.966;2023-01-29T17:59:14;2.80;99.90
13744;DHT22;6943;52.368;9.966;2023-01-29T18:01:40;2.90;1.00
13744;DHT22;6943;52.368;9.966;2023-01-29T18:04:06;2.90;2.60
13744;DHT22;6943;52.368;9.966;2023-01-29T18:06:32;2.80;1.00
13744;DHT22;6943;52.368;9.966;2023-01-29T18:08:57;2.90;1.00
13744;DHT22;6943;52.368;9.966;2023-01-29T18:11:23;2.90;1.00
13744;DHT22;6943;52.368;9.966;2023-01-29T18:13:49;2.90;1.00
13744;DHT22;6943;52.368;9.966;2023-01-29T18:16:14;2.90;1.00
13744;DHT22;6943;52.368;9.966;2023-01-29T18:18:42;2.90;1.00
13744;DHT22;6943;52.368;9.966;2023-01-29T18:21:08;2.90;1.00
13744;DHT22;6943;52.368;9.966;2023-01-29T18:23:33;2.90;1.00
13744;DHT22;6943;52.368;9.966;2023-01-29T18:25:59;2.90;1.00
13744;DHT22;6943;52.368;9.966;2023-01-29T18:28:25;2.90;1.00
13744;DHT22;6943;52.368;9.966;2023-01-29T18:30:51;2.90;1.00
13744;DHT22;6943;52.368;9.966;2023-01-29T18:33:17;2.90;1.00